Time;durP1;ratioP1;P1;durP2;ratioP2;P2;SDS_P1;SDS_P2;PMS_P1;PMS_P2;Temp;Humidity;BMP_temperature;BMP_pressure;BME280_temperature;BME280_humidity;BME280_pressure;Samples;Min_cycle;Max_cycle;Signal;HPM_P1;HPM_P2
2023/05/13 00:01:10;;;;;;;;;;;14.50;93.70;;;;;;5021399;28;19996;-77
2023/05/13 00:03:36;;;;;;;;;;;14.50;93.70;;;;;;5027283;28;20462;-78
2023/05/13 00:06:03;;;;;;;;;;;14.50;93.70;;;;;;5027440;28;19999;-77
2023/05/13 00:08:29;;;;;;;;;;;14.50;93.80;;;;;;5022442;28;19977;-77
2023/05/13 00:10:56;;;;;;;;;;;14.50;93.80;;;;;;5022034;28;20156;-77
2023/05/13 00:13:23;;;;;;;;;;;14.40;93.70;;;;;;5021025;28;19998;-77
2023/05/13 00:15:50;;;;;;;;;;;14.40;93.80;;;;;;5019928;28;20315;-77
2023/05/13 00:18:17;;;;;;;;;;;14.40;93.80;;;;;;5025874;28;20062;-77
2023/05/13 00:20:44;;;;;;;;;;;14.40;93.80;;;;;;5019950;28;20580;-77
2023/05/13 00:23:11;;;;;;;;;;;14.30;93.70;;;;;;5024727;28;19976;-77
2023/05/13 00:25:37;;;;;;;;;;;14.30;93.80;;;;;;5025067;28;20083;-77
2023/05/13 00:28:04;;;;;;;;;;;14.30;93.80;;;;;;5024714;28;19983;-77
2023/05/13 00:30:30;;;;;;;;;;;14.30;93.80;;;;;;5016357;28;19995;-77
2023/05/13 00:32:58;;;;;;;;;;;14.30;93.80;;;;;;5022471;28;20488;-76
2023/05/13 00:35:25;;;;;;;;;;;14.20;93.80;;;;;;5026200;28;19995;-77
2023/05/13 00:37:51;;;;;;;;;;;14.20;93.80;;;;;;5021916;28;20357;-77
2023/05/13 00:40:19;;;;;;;;;;;14.20;93.80;;;;;;5016396;28;19983;-77
2023/05/13 00:42:46;;;;;;;;;;;14.20;93.80;;;;;;5019907;28;19983;-77
2023/05/13 00:45:13;;;;;;;;;;;14.20;93.80;;;;;;5026270;28;20014;-77
2023/05/13 00:47:39;;;;;;;;;;;14.20;93.80;;;;;;5023333;28;19984;-76
2023/05/13 00:50:09;;;;;;;;;;;14.10;93.80;;;;;;5021768;28;19983;-77
2023/05/13 00:52:36;;;;;;;;;;;14.10;93.90;;;;;;5022226;28;20015;-76
2023/05/13 00:55:03;;;;;;;;;;;14.10;93.90;;;;;;5023684;28;20007;-77
2023/05/13 00:57:30;;;;;;;;;;;14.10;93.90;;;;;;5022179;28;19976;-77
2023/05/13 00:59:56;;;;;;;;;;;14.10;93.90;;;;;;5022810;28;19980;-77
2023/05/13 01:02:27;;;;;;;;;;;14.10;93.90;;;;;;5024545;28;19992;-76
2023/05/13 01:04:59;;;;;;;;;;;14.00;93.90;;;;;;5024793;28;19999;-77
2023/05/13 01:07:29;;;;;;;;;;;14.00;93.90;;;;;;5023160;28;20422;-77
2023/05/13 01:10:01;;;;;;;;;;;14.00;93.90;;;;;;5020919;28;20454;-77
2023/05/13 01:12:31;;;;;;;;;;;13.90;93.90;;;;;;5018731;28;19977;-77
2023/05/13 01:15:03;;;;;;;;;;;13.90;93.90;;;;;;5015634;28;20575;-77
2023/05/13 01:17:32;;;;;;;;;;;13.90;93.90;;;;;;5020072;28;19999;-77
2023/05/13 01:20:00;;;;;;;;;;;13.90;93.90;;;;;;5018541;28;20015;-77
2023/05/13 01:22:28;;;;;;;;;;;13.80;93.90;;;;;;5019799;28;20007;-76
2023/05/13 01:24:55;;;;;;;;;;;13.80;93.90;;;;;;5019228;28;19996;-77
2023/05/13 01:27:21;;;;;;;;;;;13.80;93.90;;;;;;5020689;28;20195;-76
2023/05/13 01:29:48;;;;;;;;;;;13.80;94.00;;;;;;5012812;28;19979;-77
2023/05/13 01:32:15;;;;;;;;;;;13.70;94.00;;;;;;5017836;28;19988;-76
2023/05/13 01:34:43;;;;;;;;;;;13.70;94.00;;;;;;5017636;28;19999;-77
2023/05/13 01:37:09;;;;;;;;;;;13.70;94.00;;;;;;5021625;28;19972;-77
2023/05/13 01:39:38;;;;;;;;;;;13.70;94.00;;;;;;5020807;28;19980;-76
2023/05/13 01:42:04;;;;;;;;;;;13.70;94.10;;;;;;5020503;28;20433;-76
2023/05/13 01:44:31;;;;;;;;;;;13.60;94.00;;;;;;5018748;28;20014;-76
2023/05/13 01:46:57;;;;;;;;;;;13.60;94.00;;;;;;5020786;28;19992;-77
2023/05/13 01:49:24;;;;;;;;;;;13.60;94.10;;;;;;5021826;28;21079;-77
2023/05/13 01:51:51;;;;;;;;;;;13.60;94.10;;;;;;5020040;28;19995;-77
2023/05/13 01:54:17;;;;;;;;;;;13.60;94.10;;;;;;5018255;28;19987;-77
2023/05/13 01:56:45;;;;;;;;;;;13.60;94.10;;;;;;5020259;28;20007;-77
2023/05/13 01:59:12;;;;;;;;;;;13.50;94.10;;;;;;5018897;28;20000;-77
2023/05/13 02:01:39;;;;;;;;;;;13.50;94.10;;;;;;5019231;28;19996;-76
2023/05/13 02:04:05;;;;;;;;;;;13.50;94.10;;;;;;5020824;28;19987;-76
2023/05/13 02:06:32;;;;;;;;;;;13.50;94.10;;;;;;5018801;28;20000;-77
2023/05/13 02:08:58;;;;;;;;;;;13.50;94.10;;;;;;5020514;28;19987;-76
2023/05/13 02:11:25;;;;;;;;;;;13.40;94.10;;;;;;5019629;28;20692;-77
2023/05/13 02:13:53;;;;;;;;;;;13.40;94.10;;;;;;5018677;28;20461;-76
2023/05/13 02:16:20;;;;;;;;;;;13.40;94.10;;;;;;5017674;28;19996;-76
2023/05/13 02:18:46;;;;;;;;;;;13.40;94.10;;;;;;5022683;28;19987;-76
2023/05/13 02:21:13;;;;;;;;;;;13.40;94.10;;;;;;5019082;28;19977;-77
2023/05/13 02:23:39;;;;;;;;;;;13.30;94.10;;;;;;5019741;28;19991;-77
2023/05/13 02:26:06;;;;;;;;;;;13.30;94.10;;;;;;5019486;28;20363;-77
2023/05/13 02:28:32;;;;;;;;;;;13.30;94.10;;;;;;5015537;28;20042;-76
2023/05/13 02:31:00;;;;;;;;;;;13.30;94.10;;;;;;5013749;28;19991;-77
2023/05/13 02:33:27;;;;;;;;;;;13.30;94.20;;;;;;5017840;28;19995;-76
2023/05/13 02:35:53;;;;;;;;;;;13.30;94.20;;;;;;5015293;28;20002;-77
2023/05/13 02:38:20;;;;;;;;;;;13.20;94.20;;;;;;5023563;28;20459;-76
2023/05/13 02:40:47;;;;;;;;;;;13.20;94.20;;;;;;5016798;28;19980;-75
2023/05/13 02:43:13;;;;;;;;;;;13.20;94.20;;;;;;5023161;28;19976;-77
2023/05/13 02:45:40;;;;;;;;;;;13.20;94.20;;;;;;5021912;28;20003;-77
2023/05/13 02:48:09;;;;;;;;;;;13.20;94.20;;;;;;5019227;28;19976;-77
2023/05/13 02:50:36;;;;;;;;;;;13.10;94.20;;;;;;5026055;28;19987;-76
2023/05/13 02:53:02;;;;;;;;;;;13.10;94.20;;;;;;5023298;28;19980;-76
2023/05/13 02:55:29;;;;;;;;;;;13.10;94.20;;;;;;5025567;28;20776;-77
2023/05/13 02:57:56;;;;;;;;;;;13.10;94.20;;;;;;5024829;28;19987;-76
2023/05/13 03:00:22;;;;;;;;;;;13.10;94.20;;;;;;5024526;28;20079;-76
2023/05/13 03:02:49;;;;;;;;;;;13.10;94.20;;;;;;5021844;28;20326;-77
2023/05/13 03:05:17;;;;;;;;;;;13.00;94.20;;;;;;5023027;28;20402;-76
2023/05/13 03:07:43;;;;;;;;;;;13.00;94.20;;;;;;5023125;28;20473;-76
2023/05/13 03:10:10;;;;;;;;;;;13.00;94.20;;;;;;5021135;28;19976;-77
2023/05/13 03:12:37;;;;;;;;;;;12.90;94.20;;;;;;5021987;28;19991;-76
2023/05/13 03:15:03;;;;;;;;;;;12.90;94.20;;;;;;5017935;28;19997;-76
2023/05/13 03:17:30;;;;;;;;;;;12.90;94.20;;;;;;5020264;28;19992;-76
2023/05/13 03:19:57;;;;;;;;;;;12.90;94.20;;;;;;5018597;28;19983;-76
2023/05/13 03:22:25;;;;;;;;;;;12.90;94.20;;;;;;5021580;28;19980;-76
2023/05/13 03:24:51;;;;;;;;;;;12.90;94.20;;;;;;5021394;28;20047;-76
2023/05/13 03:27:18;;;;;;;;;;;12.80;94.20;;;;;;5023082;28;19976;-76
2023/05/13 03:29:45;;;;;;;;;;;12.90;94.30;;;;;;5012068;28;19984;-76
2023/05/13 03:32:11;;;;;;;;;;;12.80;94.20;;;;;;5021190;28;19999;-76
2023/05/13 03:34:38;;;;;;;;;;;12.80;94.20;;;;;;5021086;28;19987;-76
2023/05/13 03:37:04;;;;;;;;;;;12.80;94.20;;;;;;5021263;28;19999;-76
2023/05/13 03:39:32;;;;;;;;;;;12.70;94.20;;;;;;5018314;28;20112;-76
2023/05/13 03:41:59;;;;;;;;;;;12.70;94.20;;;;;;5025138;28;19980;-76
2023/05/13 03:44:26;;;;;;;;;;;12.70;94.20;;;;;;5023023;28;19976;-76
2023/05/13 03:46:53;;;;;;;;;;;12.70;94.20;;;;;;5018553;28;20008;-76
2023/05/13 03:49:19;;;;;;;;;;;12.60;94.20;;;;;;5021516;28;19984;-76
2023/05/13 03:51:46;;;;;;;;;;;12.70;94.20;;;;;;5020416;28;19976;-76
2023/05/13 03:54:12;;;;;;;;;;;12.60;94.20;;;;;;5020434;28;19976;-76
2023/05/13 03:56:40;;;;;;;;;;;12.60;94.20;;;;;;5022193;28;20007;-76
2023/05/13 03:59:07;;;;;;;;;;;12.60;94.20;;;;;;5021016;28;19976;-76
2023/05/13 04:01:34;;;;;;;;;;;12.50;94.10;;;;;;5017027;28;19996;-76
2023/05/13 04:04:01;;;;;;;;;;;12.50;94.10;;;;;;5021881;28;20386;-76
2023/05/13 04:06:27;;;;;;;;;;;12.60;94.20;;;;;;5029504;28;19999;-76
2023/05/13 04:08:54;;;;;;;;;;;12.50;94.10;;;;;;5022681;28;19989;-76
2023/05/13 04:11:20;;;;;;;;;;;12.50;94.10;;;;;;5022201;28;19983;-76
2023/05/13 04:13:48;;;;;;;;;;;12.50;94.20;;;;;;5022311;28;20027;-76
2023/05/13 04:16:16;;;;;;;;;;;12.50;94.20;;;;;;5023426;28;20000;-76
2023/05/13 04:18:42;;;;;;;;;;;12.40;94.20;;;;;;5023385;28;21107;-76
2023/05/13 04:21:10;;;;;;;;;;;12.40;94.20;;;;;;5023883;28;20023;-76
2023/05/13 04:23:36;;;;;;;;;;;12.40;94.20;;;;;;5025424;28;20101;-76
2023/05/13 04:26:03;;;;;;;;;;;12.40;94.20;;;;;;5025543;28;20000;-76
2023/05/13 04:28:30;;;;;;;;;;;12.40;94.20;;;;;;5022678;28;20002;-76
2023/05/13 04:30:58;;;;;;;;;;;12.40;94.20;;;;;;5020869;28;20710;-76
2023/05/13 04:33:24;;;;;;;;;;;12.30;94.20;;;;;;5026400;28;20690;-77
2023/05/13 04:35:51;;;;;;;;;;;12.30;94.20;;;;;;5022728;28;20369;-76
2023/05/13 04:38:17;;;;;;;;;;;12.30;94.20;;;;;;5025793;28;19987;-76
2023/05/13 04:40:44;;;;;;;;;;;12.30;94.60;;;;;;5021314;28;19984;-76
2023/05/13 04:43:11;;;;;;;;;;;12.30;94.30;;;;;;5022545;28;19984;-76
2023/05/13 04:45:38;;;;;;;;;;;12.30;94.30;;;;;;5018950;28;20807;-76
2023/05/13 04:48:06;;;;;;;;;;;12.30;94.30;;;;;;5019266;28;20377;-76
2023/05/13 04:50:33;;;;;;;;;;;12.30;94.30;;;;;;5016424;28;19976;-76
2023/05/13 04:52:59;;;;;;;;;;;12.20;94.30;;;;;;5018811;28;19976;-76
2023/05/13 04:55:26;;;;;;;;;;;12.20;94.30;;;;;;5017696;28;19992;-76
2023/05/13 04:57:52;;;;;;;;;;;12.20;94.30;;;;;;5019505;28;19980;-76
2023/05/13 05:00:19;;;;;;;;;;;12.20;94.40;;;;;;5015265;28;19979;-76
2023/05/13 05:02:46;;;;;;;;;;;12.20;94.40;;;;;;5020542;28;20002;-76
2023/05/13 05:05:14;;;;;;;;;;;12.20;94.70;;;;;;5018904;28;19992;-66
2023/05/13 05:07:41;;;;;;;;;;;12.20;94.50;;;;;;5023794;28;19980;-67
2023/05/13 05:10:08;;;;;;;;;;;12.20;94.50;;;;;;5021001;28;19972;-67
2023/05/13 05:12:35;;;;;;;;;;;12.10;94.50;;;;;;5023165;28;20011;-67
2023/05/13 05:15:01;;;;;;;;;;;12.10;94.50;;;;;;5016492;28;19988;-76
2023/05/13 05:17:31;;;;;;;;;;;12.10;94.50;;;;;;5020286;28;19992;-76
2023/05/13 05:19:57;;;;;;;;;;;12.10;94.60;;;;;;5022995;28;20373;-76
2023/05/13 05:22:25;;;;;;;;;;;12.10;94.60;;;;;;5027123;28;19973;-76
2023/05/13 05:24:52;;;;;;;;;;;12.10;94.60;;;;;;5019798;28;19999;-76
2023/05/13 05:27:18;;;;;;;;;;;12.10;94.70;;;;;;5020633;28;20433;-76
2023/05/13 05:29:45;;;;;;;;;;;12.00;94.60;;;;;;5015371;28;20714;-76
2023/05/13 05:32:12;;;;;;;;;;;12.00;94.60;;;;;;5019400;28;19988;-76
2023/05/13 05:34:38;;;;;;;;;;;12.00;94.60;;;;;;5022952;28;19980;-76
2023/05/13 05:37:05;;;;;;;;;;;12.10;94.70;;;;;;5021207;28;20347;-76
2023/05/13 05:39:34;;;;;;;;;;;12.10;94.70;;;;;;5019564;28;19983;-76
2023/05/13 05:42:00;;;;;;;;;;;12.10;94.70;;;;;;5016920;28;19976;-76
2023/05/13 05:44:27;;;;;;;;;;;12.00;94.70;;;;;;5020224;28;20011;-76
2023/05/13 05:46:54;;;;;;;;;;;12.10;94.70;;;;;;5017041;28;19996;-76
2023/05/13 05:49:20;;;;;;;;;;;12.10;94.70;;;;;;5020285;28;19973;-76
2023/05/13 05:51:47;;;;;;;;;;;12.10;94.70;;;;;;5020129;28;19980;-76
2023/05/13 05:54:13;;;;;;;;;;;12.10;94.70;;;;;;5020845;28;20878;-76
2023/05/13 05:56:41;;;;;;;;;;;12.10;94.60;;;;;;5020386;28;20458;-76
2023/05/13 05:59:08;;;;;;;;;;;12.10;94.60;;;;;;5020316;28;20300;-76
2023/05/13 06:01:35;;;;;;;;;;;12.10;94.60;;;;;;5015620;28;20617;-75
2023/05/13 06:04:02;;;;;;;;;;;12.10;94.60;;;;;;5021059;28;20721;-76
2023/05/13 06:06:28;;;;;;;;;;;12.10;94.60;;;;;;5018778;28;19996;-76
2023/05/13 06:08:55;;;;;;;;;;;12.10;94.60;;;;;;5015317;28;19979;-77
2023/05/13 06:11:21;;;;;;;;;;;12.10;94.60;;;;;;5015759;28;20027;-77
2023/05/13 06:13:49;;;;;;;;;;;12.10;94.60;;;;;;5016012;28;19980;-74
2023/05/13 06:16:16;;;;;;;;;;;12.10;94.90;;;;;;5015391;28;20000;-75
2023/05/13 06:18:43;;;;;;;;;;;12.10;94.60;;;;;;5014342;28;20117;-76
2023/05/13 06:21:09;;;;;;;;;;;12.10;94.60;;;;;;5014216;28;19976;-75
2023/05/13 06:23:36;;;;;;;;;;;12.20;94.60;;;;;;5019271;28;19991;-76
2023/05/13 06:26:03;;;;;;;;;;;12.10;94.50;;;;;;5023540;28;19999;-76
2023/05/13 06:28:29;;;;;;;;;;;12.20;94.50;;;;;;5018679;28;20069;-75
2023/05/13 06:30:57;;;;;;;;;;;12.20;94.40;;;;;;5014611;28;20453;-76
2023/05/13 06:33:24;;;;;;;;;;;12.20;94.40;;;;;;5022535;28;20788;-75
2023/05/13 06:35:50;;;;;;;;;;;12.20;94.30;;;;;;5023984;28;20374;-73
2023/05/13 06:38:17;;;;;;;;;;;12.20;94.30;;;;;;5020135;28;19996;-73
2023/05/13 06:40:44;;;;;;;;;;;12.20;94.20;;;;;;5018920;28;20050;-73
2023/05/13 06:43:13;;;;;;;;;;;12.20;94.20;;;;;;5017319;28;19986;-74
2023/05/13 06:45:39;;;;;;;;;;;12.20;94.20;;;;;;5020963;28;20093;-74
2023/05/13 06:48:07;;;;;;;;;;;12.20;94.20;;;;;;5023567;28;19980;-74
2023/05/13 06:50:34;;;;;;;;;;;12.20;94.10;;;;;;5022085;28;20038;-74
2023/05/13 06:53:00;;;;;;;;;;;12.20;94.10;;;;;;5017899;28;19987;-73
2023/05/13 06:55:27;;;;;;;;;;;12.20;94.10;;;;;;5022517;28;19999;-74
2023/05/13 06:57:53;;;;;;;;;;;12.20;94.10;;;;;;5017267;28;20549;-77
2023/05/13 07:00:20;;;;;;;;;;;12.30;94.10;;;;;;5015775;28;19994;-76
2023/05/13 07:02:47;;;;;;;;;;;12.30;94.10;;;;;;5020486;28;19983;-75
2023/05/13 07:05:15;;;;;;;;;;;12.30;94.10;;;;;;5019288;28;20019;-74
2023/05/13 07:07:42;;;;;;;;;;;12.30;94.20;;;;;;5018741;28;20389;-75
2023/05/13 07:10:09;;;;;;;;;;;12.30;94.00;;;;;;5017070;28;20378;-74
2023/05/13 07:12:35;;;;;;;;;;;12.30;94.00;;;;;;5020796;28;19980;-74
2023/05/13 07:15:02;;;;;;;;;;;12.30;93.90;;;;;;5017050;28;20857;-75
2023/05/13 07:17:30;;;;;;;;;;;12.30;93.80;;;;;;5018920;28;20000;-74
2023/05/13 07:19:56;;;;;;;;;;;12.30;93.70;;;;;;5017553;28;19982;-75
2023/05/13 07:22:24;;;;;;;;;;;12.40;93.60;;;;;;5023160;28;20111;-74
2023/05/13 07:24:51;;;;;;;;;;;12.40;93.50;;;;;;5022309;28;20051;-74
2023/05/13 07:27:17;;;;;;;;;;;12.40;93.40;;;;;;5021417;28;19987;-75
2023/05/13 07:29:44;;;;;;;;;;;12.40;93.40;;;;;;5020310;28;20054;-74
2023/05/13 07:32:10;;;;;;;;;;;12.50;93.30;;;;;;5014698;28;20358;-75
2023/05/13 07:34:37;;;;;;;;;;;12.50;93.30;;;;;;5021290;28;20362;-75
2023/05/13 07:37:04;;;;;;;;;;;12.50;93.30;;;;;;5022368;28;19992;-75
2023/05/13 07:39:32;;;;;;;;;;;12.60;93.30;;;;;;5023365;28;19983;-75
2023/05/13 07:41:58;;;;;;;;;;;12.60;93.20;;;;;;5023479;28;19987;-74
2023/05/13 07:44:25;;;;;;;;;;;12.60;93.30;;;;;;5023018;28;19976;-75
2023/05/13 07:46:52;;;;;;;;;;;12.60;93.20;;;;;;5021153;28;20007;-74
2023/05/13 07:49:18;;;;;;;;;;;12.60;93.20;;;;;;5016709;28;19976;-75
2023/05/13 07:51:45;;;;;;;;;;;12.60;93.20;;;;;;5022018;28;19979;-75
2023/05/13 07:54:11;;;;;;;;;;;12.70;93.30;;;;;;5018808;28;19976;-75
2023/05/13 07:56:39;;;;;;;;;;;12.70;93.30;;;;;;5022666;28;20003;-74
2023/05/13 07:59:06;;;;;;;;;;;12.70;93.30;;;;;;5020421;28;20560;-73
2023/05/13 08:01:32;;;;;;;;;;;12.70;93.30;;;;;;5021257;28;19995;-74
2023/05/13 08:03:59;;;;;;;;;;;12.80;93.30;;;;;;5022085;28;19987;-75
2023/05/13 08:06:26;;;;;;;;;;;12.80;93.20;;;;;;5020763;28;19995;-74
2023/05/13 08:08:52;;;;;;;;;;;12.80;93.10;;;;;;5023127;28;19991;-74
2023/05/13 08:11:20;;;;;;;;;;;12.90;93.00;;;;;;5021691;28;19980;-75
2023/05/13 08:13:48;;;;;;;;;;;12.90;93.00;;;;;;5021977;28;19980;-75
2023/05/13 08:16:14;;;;;;;;;;;12.90;92.90;;;;;;5020753;28;20000;-75
2023/05/13 08:18:41;;;;;;;;;;;12.90;92.90;;;;;;5019327;28;19996;-75
2023/05/13 08:21:07;;;;;;;;;;;13.00;92.90;;;;;;5018160;28;19975;-74
2023/05/13 08:23:34;;;;;;;;;;;13.00;92.80;;;;;;5021876;28;20007;-75
2023/05/13 08:26:01;;;;;;;;;;;13.00;92.80;;;;;;5021678;28;20000;-75
2023/05/13 08:28:28;;;;;;;;;;;13.00;92.70;;;;;;5024359;28;19984;-76
2023/05/13 08:31:01;;;;;;;;;;;13.10;92.60;;;;;;5018008;28;20004;-76
2023/05/13 08:33:27;;;;;;;;;;;13.10;92.60;;;;;;5019963;28;20485;-75
2023/05/13 08:35:54;;;;;;;;;;;13.10;92.60;;;;;;5017228;28;20000;-75
2023/05/13 08:38:20;;;;;;;;;;;13.10;92.50;;;;;;5022623;28;19991;-75
2023/05/13 08:40:47;;;;;;;;;;;13.20;92.50;;;;;;5021378;28;19988;-75
2023/05/13 08:43:14;;;;;;;;;;;13.20;92.50;;;;;;5019073;28;19980;-75
2023/05/13 08:45:41;;;;;;;;;;;13.30;92.60;;;;;;5021777;28;19996;-75
2023/05/13 08:48:10;;;;;;;;;;;13.30;92.50;;;;;;5022670;28;20019;-75
2023/05/13 08:50:36;;;;;;;;;;;13.30;92.50;;;;;;5022535;28;19980;-75
2023/05/13 08:53:03;;;;;;;;;;;13.30;92.50;;;;;;5023337;28;20745;-74
2023/05/13 08:55:30;;;;;;;;;;;13.40;92.60;;;;;;5017905;28;19996;-75
2023/05/13 08:57:56;;;;;;;;;;;13.40;92.60;;;;;;5015239;28;19999;-74
2023/05/13 09:00:23;;;;;;;;;;;13.50;92.50;;;;;;5020828;28;19979;-74
2023/05/13 09:02:50;;;;;;;;;;;13.50;92.40;;;;;;5018381;28;19987;-76
2023/05/13 09:05:18;;;;;;;;;;;13.50;92.30;;;;;;5019013;28;19992;-75
2023/05/13 09:07:45;;;;;;;;;;;13.60;92.20;;;;;;5021992;28;19984;-75
2023/05/13 09:10:11;;;;;;;;;;;13.60;92.20;;;;;;5021641;28;19980;-75
2023/05/13 09:12:45;;;;;;;;;;;13.60;92.10;;;;;;5019513;28;19984;-76
2023/05/13 09:15:12;;;;;;;;;;;13.70;92.10;;;;;;5017391;28;19996;-75
2023/05/13 09:17:41;;;;;;;;;;;13.70;92.00;;;;;;5020321;28;19996;-75
2023/05/13 09:20:08;;;;;;;;;;;13.70;91.90;;;;;;5015694;28;19976;-75
2023/05/13 09:22:36;;;;;;;;;;;13.80;92.00;;;;;;5020209;28;20015;-75
2023/05/13 09:25:03;;;;;;;;;;;13.80;91.90;;;;;;5018659;28;20011;-74
2023/05/13 09:27:36;;;;;;;;;;;13.80;91.80;;;;;;5022243;28;19976;-75
2023/05/13 09:30:02;;;;;;;;;;;13.90;91.60;;;;;;5014636;28;20425;-75
2023/05/13 09:32:29;;;;;;;;;;;13.90;91.40;;;;;;5020065;28;19992;-75
2023/05/13 09:34:56;;;;;;;;;;;14.00;91.30;;;;;;5018423;28;20002;-75
2023/05/13 09:37:23;;;;;;;;;;;14.00;91.40;;;;;;5020088;28;19988;-76
2023/05/13 09:39:52;;;;;;;;;;;14.10;91.20;;;;;;5018158;28;21230;-75
2023/05/13 09:42:19;;;;;;;;;;;14.10;91.00;;;;;;5018741;28;19983;-75
2023/05/13 09:44:46;;;;;;;;;;;14.20;90.90;;;;;;5019187;28;20006;-76
2023/05/13 09:47:13;;;;;;;;;;;14.20;91.10;;;;;;5019033;28;20030;-75
2023/05/13 09:49:40;;;;;;;;;;;14.30;90.70;;;;;;5018605;28;19980;-75
2023/05/13 09:52:10;;;;;;;;;;;14.30;90.90;;;;;;5014013;28;19987;-76
2023/05/13 09:54:36;;;;;;;;;;;14.30;90.80;;;;;;5016790;28;19980;-75
2023/05/13 09:57:05;;;;;;;;;;;14.40;90.80;;;;;;5023411;28;19983;-75
2023/05/13 09:59:32;;;;;;;;;;;14.40;90.50;;;;;;5019700;28;19976;-75
2023/05/13 10:01:59;;;;;;;;;;;14.50;90.40;;;;;;5015710;28;20054;-75
2023/05/13 10:04:26;;;;;;;;;;;14.50;90.50;;;;;;5020464;28;20686;-75
2023/05/13 10:06:52;;;;;;;;;;;14.60;90.60;;;;;;5015800;28;20046;-75
2023/05/13 10:09:21;;;;;;;;;;;14.60;90.50;;;;;;5016909;28;19988;-76
2023/05/13 10:11:47;;;;;;;;;;;14.60;90.50;;;;;;5018846;28;19980;-75
2023/05/13 10:14:17;;;;;;;;;;;14.70;90.60;;;;;;5021644;28;20086;-75
2023/05/13 10:16:44;;;;;;;;;;;14.70;90.60;;;;;;5017444;28;19999;-76
2023/05/13 10:19:11;;;;;;;;;;;14.80;90.50;;;;;;5018833;28;20465;-76
2023/05/13 10:21:38;;;;;;;;;;;14.90;90.50;;;;;;5022002;28;20094;-75
2023/05/13 10:24:05;;;;;;;;;;;14.90;90.50;;;;;;5017710;28;20003;-76
2023/05/13 10:26:32;;;;;;;;;;;14.90;90.40;;;;;;5016735;28;20011;-76
2023/05/13 10:28:59;;;;;;;;;;;15.00;90.20;;;;;;5021806;28;19983;-76
2023/05/13 10:31:27;;;;;;;;;;;15.00;90.00;;;;;;5017063;28;20000;-75
2023/05/13 10:33:53;;;;;;;;;;;15.10;90.00;;;;;;5017609;28;19980;-75
2023/05/13 10:36:32;;;;;;;;;;;15.10;90.00;;;;;;5017368;28;19988;-75
2023/05/13 10:39:07;;;;;;;;;;;15.20;90.00;;;;;;5021071;28;20474;-74
2023/05/13 10:41:39;;;;;;;;;;;15.20;89.90;;;;;;5016059;28;19979;-75
2023/05/13 10:44:06;;;;;;;;;;;15.30;89.70;;;;;;5020715;28;19980;-75
2023/05/13 10:46:38;;;;;;;;;;;15.30;89.70;;;;;;5019506;28;20004;-75
2023/05/13 10:49:04;;;;;;;;;;;15.40;89.40;;;;;;5019233;28;19976;-75
2023/05/13 10:51:31;;;;;;;;;;;15.40;89.30;;;;;;5018333;28;19983;-75
2023/05/13 10:53:58;;;;;;;;;;;15.50;89.30;;;;;;5016777;28;20422;-75
2023/05/13 10:56:25;;;;;;;;;;;15.50;88.80;;;;;;5020379;28;20883;-75
2023/05/13 10:58:58;;;;;;;;;;;15.60;88.70;;;;;;5022570;28;20079;-74
2023/05/13 11:01:27;;;;;;;;;;;15.60;88.20;;;;;;5022345;28;19996;-75
2023/05/13 11:03:56;;;;;;;;;;;15.70;87.90;;;;;;5020891;28;20760;-75
2023/05/13 11:06:25;;;;;;;;;;;15.80;87.90;;;;;;5015083;28;19991;-75
2023/05/13 11:08:52;;;;;;;;;;;15.80;87.90;;;;;;5020287;28;19984;-75
2023/05/13 11:11:32;;;;;;;;;;;15.90;87.70;;;;;;5022686;28;20402;-75
2023/05/13 11:14:05;;;;;;;;;;;15.90;87.60;;;;;;5021892;28;20071;-75
2023/05/13 11:16:33;;;;;;;;;;;16.00;87.40;;;;;;5019122;28;20011;-75
2023/05/13 11:19:01;;;;;;;;;;;16.00;87.30;;;;;;5018984;28;19992;-75
2023/05/13 11:21:29;;;;;;;;;;;16.00;87.10;;;;;;5015784;28;20015;-75
2023/05/13 11:23:56;;;;;;;;;;;16.10;87.10;;;;;;5023604;28;19984;-75
2023/05/13 11:26:23;;;;;;;;;;;16.10;86.90;;;;;;5022798;28;20011;-74
2023/05/13 11:28:53;;;;;;;;;;;16.20;86.90;;;;;;5022223;28;19976;-75
2023/05/13 11:31:21;;;;;;;;;;;16.20;87.00;;;;;;5023414;28;19991;-75
2023/05/13 11:34:09;;;;;;;;;;;16.20;87.30;;;;;;5023920;28;19985;-75
2023/05/13 11:36:36;;;;;;;;;;;16.30;87.20;;;;;;5019639;28;20079;-75
2023/05/13 11:39:07;;;;;;;;;;;16.30;87.00;;;;;;5026668;28;19999;-75
2023/05/13 11:41:33;;;;;;;;;;;16.30;86.90;;;;;;5023819;28;19980;-74
2023/05/13 11:44:02;;;;;;;;;;;16.40;86.40;;;;;;5026504;28;19980;-75
2023/05/13 11:46:28;;;;;;;;;;;16.40;86.50;;;;;;5023234;28;19995;-75
2023/05/13 11:48:55;;;;;;;;;;;16.50;86.50;;;;;;5030008;28;20418;-75
2023/05/13 11:51:24;;;;;;;;;;;16.50;86.40;;;;;;5018292;28;20070;-76
2023/05/13 11:53:51;;;;;;;;;;;16.60;86.20;;;;;;5022496;28;19980;-75
2023/05/13 11:56:18;;;;;;;;;;;16.60;85.90;;;;;;5020797;28;20074;-75
2023/05/13 11:58:45;;;;;;;;;;;16.70;85.60;;;;;;5023065;28;20007;-76
2023/05/13 12:01:14;;;;;;;;;;;16.80;85.60;;;;;;5012986;28;20007;-75
2023/05/13 12:03:40;;;;;;;;;;;16.80;85.30;;;;;;5023334;28;20003;-76
2023/05/13 12:06:07;;;;;;;;;;;16.90;85.00;;;;;;5017017;28;20630;-76
2023/05/13 12:08:35;;;;;;;;;;;16.90;84.90;;;;;;5023825;28;20074;-76
2023/05/13 12:11:02;;;;;;;;;;;17.00;84.90;;;;;;5021343;28;19998;-76
2023/05/13 12:13:28;;;;;;;;;;;17.10;85.00;;;;;;5023198;28;19976;-76
2023/05/13 12:15:55;;;;;;;;;;;17.10;84.90;;;;;;5017433;28;20002;-76
2023/05/13 12:18:21;;;;;;;;;;;17.20;84.40;;;;;;5014835;28;19999;-76
2023/05/13 12:20:48;;;;;;;;;;;17.20;84.30;;;;;;5019786;28;19983;-76
2023/05/13 12:23:14;;;;;;;;;;;17.30;84.00;;;;;;5016473;28;20370;-76
2023/05/13 12:25:43;;;;;;;;;;;17.30;83.80;;;;;;5018538;28;20000;-76
2023/05/13 12:28:11;;;;;;;;;;;17.40;83.40;;;;;;5016018;28;19976;-75
2023/05/13 12:30:39;;;;;;;;;;;17.40;83.30;;;;;;5014579;28;20106;-76
2023/05/13 12:33:05;;;;;;;;;;;17.50;83.50;;;;;;5018011;28;19976;-76
2023/05/13 12:35:32;;;;;;;;;;;17.50;83.80;;;;;;5016396;28;20004;-76
2023/05/13 12:38:00;;;;;;;;;;;17.60;83.80;;;;;;5018736;28;19984;-75
2023/05/13 12:40:26;;;;;;;;;;;17.60;83.50;;;;;;5010611;28;19980;-75
2023/05/13 12:42:57;;;;;;;;;;;17.60;83.20;;;;;;5015285;28;19983;-76
2023/05/13 12:45:26;;;;;;;;;;;17.70;82.90;;;;;;5018148;28;19999;-77
2023/05/13 12:47:54;;;;;;;;;;;17.70;82.90;;;;;;5016154;28;19980;-74
2023/05/13 12:50:21;;;;;;;;;;;17.70;82.80;;;;;;5016847;28;19984;-70
2023/05/13 12:52:47;;;;;;;;;;;17.80;82.80;;;;;;5020127;28;19980;-70
2023/05/13 12:55:14;;;;;;;;;;;17.90;82.60;;;;;;5021230;28;19996;-70
2023/05/13 12:57:41;;;;;;;;;;;17.90;82.20;;;;;;5022239;28;19991;-69
2023/05/13 13:00:09;;;;;;;;;;;18.00;82.20;;;;;;5017275;28;20784;-70
2023/05/13 13:02:36;;;;;;;;;;;18.10;81.80;;;;;;5019265;28;19980;-71
2023/05/13 13:05:03;;;;;;;;;;;18.10;81.90;;;;;;5020312;28;20847;-70
2023/05/13 13:07:29;;;;;;;;;;;18.20;81.40;;;;;;5021214;28;20015;-70
2023/05/13 13:09:56;;;;;;;;;;;18.20;81.20;;;;;;5021258;28;20015;-70
2023/05/13 13:12:22;;;;;;;;;;;18.20;80.70;;;;;;5023396;28;19980;-70
2023/05/13 13:14:49;;;;;;;;;;;18.30;80.60;;;;;;5019806;28;19980;-70
2023/05/13 13:17:16;;;;;;;;;;;18.30;80.80;;;;;;5020103;28;20049;-69
2023/05/13 13:19:43;;;;;;;;;;;18.30;81.20;;;;;;5013920;28;19995;-70
2023/05/13 13:22:10;;;;;;;;;;;18.40;81.40;;;;;;5020714;28;19980;-70
2023/05/13 13:24:36;;;;;;;;;;;18.40;81.20;;;;;;5022440;28;20384;-69
2023/05/13 13:27:03;;;;;;;;;;;18.40;81.00;;;;;;5021032;28;19988;-70
2023/05/13 13:29:29;;;;;;;;;;;18.40;80.60;;;;;;5020981;28;19987;-69
2023/05/13 13:31:56;;;;;;;;;;;18.40;80.60;;;;;;5015852;28;20933;-70
2023/05/13 13:34:24;;;;;;;;;;;18.40;80.70;;;;;;5021230;28;20107;-69
2023/05/13 13:36:50;;;;;;;;;;;18.40;80.70;;;;;;5020492;28;21149;-70
2023/05/13 13:39:17;;;;;;;;;;;18.40;80.40;;;;;;5016332;28;19996;-69
2023/05/13 13:41:43;;;;;;;;;;;18.40;80.20;;;;;;5027491;28;19983;-70
2023/05/13 13:44:10;;;;;;;;;;;18.40;80.30;;;;;;5021658;28;20070;-70
2023/05/13 13:46:36;;;;;;;;;;;18.40;80.70;;;;;;5019854;28;20003;-70
2023/05/13 13:49:03;;;;;;;;;;;18.40;80.70;;;;;;5021371;28;19976;-70
2023/05/13 13:51:32;;;;;;;;;;;18.50;80.70;;;;;;5018901;28;19976;-70
2023/05/13 13:54:03;;;;;;;;;;;18.50;80.70;;;;;;5022110;28;20031;-69
2023/05/13 13:56:29;;;;;;;;;;;18.50;80.40;;;;;;5023613;28;19992;-69
2023/05/13 13:58:56;;;;;;;;;;;18.50;80.30;;;;;;5019668;28;19992;-70
2023/05/13 14:01:22;;;;;;;;;;;18.50;80.10;;;;;;5022855;28;19999;-70
2023/05/13 14:03:49;;;;;;;;;;;18.50;80.40;;;;;;5023246;28;20019;-69
2023/05/13 14:06:16;;;;;;;;;;;18.50;80.30;;;;;;5016101;28;19999;-68
2023/05/13 14:08:43;;;;;;;;;;;18.50;79.50;;;;;;5020884;28;19983;-70
2023/05/13 14:11:10;;;;;;;;;;;18.60;79.30;;;;;;5019942;28;19987;-70
2023/05/13 14:13:36;;;;;;;;;;;18.60;78.80;;;;;;5018355;28;20234;-70
2023/05/13 14:16:04;;;;;;;;;;;18.60;78.60;;;;;;5020337;28;20002;-70